Time;durP1;ratioP1;P1;durP2;ratioP2;P2;SDS_P1;SDS_P2;PMS_P1;PMS_P2;Temp;Humidity;BMP_temperature;BMP_pressure;BME280_temperature;BME280_humidity;BME280_pressure;Samples;Min_cycle;Max_cycle;Signal;HPM_P1;HPM_P2
2021/05/04 00:00:19;;;;;;;11.48;6.87;;;;;;;5.98;72.84;100644.78;1710860;81;25874;-74
2021/05/04 00:02:48;;;;;;;9.18;6.03;;;;;;;5.92;72.89;100648.88;1651601;82;27264;-74
2021/05/04 00:05:15;;;;;;;12.23;7.08;;;;;;;5.83;72.99;100650.28;1693235;81;26464;-74
2021/05/04 00:07:42;;;;;;;12.82;7.00;;;;;;;5.79;73.10;100647.11;1688651;82;25806;-74
2021/05/04 00:10:11;;;;;;;12.40;7.08;;;;;;;5.79;73.22;100643.61;1712428;82;25723;-74
2021/05/04 00:12:38;;;;;;;14.00;7.97;;;;;;;5.78;73.21;100643.26;1651062;82;25820;-74
2021/05/04 00:15:08;;;;;;;11.33;7.00;;;;;;;5.79;73.29;100642.28;1666297;83;27557;-74
2021/05/04 00:17:35;;;;;;;12.43;7.87;;;;;;;5.75;73.33;100636.42;1686312;83;25921;-74
2021/05/04 00:20:05;;;;;;;11.05;6.90;;;;;;;5.71;73.35;100632.41;1732505;82;26458;-74
2021/05/04 00:22:33;;;;;;;14.00;7.37;;;;;;;5.67;73.39;100632.38;1676089;81;26362;-74
2021/05/04 00:25:00;;;;;;;13.60;7.55;;;;;;;5.64;73.43;100631.87;1661987;83;26134;-74
2021/05/04 00:27:27;;;;;;;14.25;7.62;;;;;;;5.63;73.54;100627.04;1718699;82;27343;-74
2021/05/04 00:29:56;;;;;;;13.10;7.67;;;;;;;5.63;73.63;100627.52;1685310;83;25768;-74
2021/05/04 00:32:24;;;;;;;16.30;7.65;;;;;;;5.61;73.41;100621.05;1670359;83;26558;-74
2021/05/04 00:34:52;;;;;;;12.05;7.28;;;;;;;5.56;73.60;100628.63;1697078;82;25893;-74
2021/05/04 00:37:19;;;;;;;13.50;8.45;;;;;;;5.58;73.63;100624.00;1659931;83;25825;-74
2021/05/04 00:39:47;;;;;;;12.00;7.65;;;;;;;5.59;73.48;100622.19;1719678;82;27544;-74
2021/05/04 00:42:14;;;;;;;14.80;8.15;;;;;;;5.59;73.44;100619.53;1694320;82;25887;-74
2021/05/04 00:44:41;;;;;;;15.72;8.23;;;;;;;5.55;73.54;100615.52;1717939;81;25876;-74
2021/05/04 00:47:09;;;;;;;13.83;7.50;;;;;;;5.55;73.58;100619.50;1693341;82;25852;-74
2021/05/04 00:49:36;;;;;;;13.18;7.67;;;;;;;5.52;73.47;100619.83;1697395;83;26058;-75
2021/05/04 00:52:04;;;;;;;13.43;7.30;;;;;;;5.47;73.48;100618.95;1652142;82;28340;-74
2021/05/04 00:54:32;;;;;;;11.70;8.10;;;;;;;5.45;73.54;100614.29;1716756;81;26493;-74
2021/05/04 00:57:00;;;;;;;16.55;8.33;;;;;;;5.43;73.55;100617.59;1695154;82;26500;-74
2021/05/04 00:59:29;;;;;;;14.33;8.68;;;;;;;5.37;73.56;100615.04;1744891;81;25838;-75
2021/05/04 01:01:56;;;;;;;15.90;8.23;;;;;;;5.34;73.77;100615.36;1672564;83;26068;-74
2021/05/04 01:04:24;;;;;;;16.75;9.08;;;;;;;5.29;73.94;100613.65;1680796;82;27708;-74
2021/05/04 01:06:51;;;;;;;12.15;7.55;;;;;;;5.24;73.90;100617.73;1695973;82;26455;-74
2021/05/04 01:09:19;;;;;;;12.35;7.45;;;;;;;5.19;74.08;100612.90;1729425;81;25737;-74
2021/05/04 01:11:47;;;;;;;15.35;7.80;;;;;;;5.15;74.27;100612.02;1652471;81;26456;-74
2021/05/04 01:14:15;;;;;;;13.03;7.85;;;;;;;5.09;74.39;100612.12;1706762;81;25805;-74
2021/05/04 01:16:46;;;;;;;12.37;7.95;;;;;;;5.06;74.54;100610.27;1712487;81;28292;-75
2021/05/04 01:19:13;;;;;;;12.13;8.08;;;;;;;5.06;74.76;100621.73;1717457;82;25792;-74
2021/05/04 01:21:40;;;;;;;11.60;6.95;;;;;;;5.03;74.74;100619.36;1666757;81;25803;-74
2021/05/04 01:24:09;;;;;;;13.88;7.92;;;;;;;5.00;74.84;100617.03;1665769;83;25768;-74
2021/05/04 01:26:37;;;;;;;11.33;6.30;;;;;;;4.94;74.88;100627.41;1687105;83;26482;-75
2021/05/04 01:29:04;;;;;;;15.00;7.72;;;;;;;4.89;75.17;100617.72;1720701;82;28460;-74
2021/05/04 01:31:32;;;;;;;16.50;7.85;;;;;;;4.86;75.24;100621.99;1672723;81;26003;-74
2021/05/04 01:33:59;;;;;;;16.45;7.75;;;;;;;4.84;75.27;100612.02;1698077;82;25800;-74
2021/05/04 01:36:27;;;;;;;16.15;7.53;;;;;;;4.85;75.39;100611.05;1687268;83;25979;-74
2021/05/04 01:38:55;;;;;;;13.80;8.25;;;;;;;4.85;75.29;100606.59;1715240;82;26400;-74
2021/05/04 01:41:22;;;;;;;13.08;7.00;;;;;;;4.85;75.25;100607.07;1677557;82;27712;-74
2021/05/04 01:43:49;;;;;;;12.15;6.60;;;;;;;4.88;75.17;100600.95;1662394;83;25832;-74
2021/05/04 01:46:17;;;;;;;12.63;7.97;;;;;;;4.90;75.18;100594.20;1713940;82;25407;-74
2021/05/04 01:48:44;;;;;;;11.45;6.80;;;;;;;4.95;75.12;100587.44;1713181;82;26680;-74
2021/05/04 01:51:11;;;;;;;14.78;7.35;;;;;;;4.98;74.92;100587.63;1675138;81;26461;-74
2021/05/04 01:53:39;;;;;;;13.38;7.80;;;;;;;5.02;74.84;100583.20;1676206;82;27661;-74
2021/05/04 01:56:06;;;;;;;15.55;8.50;;;;;;;5.06;74.65;100585.89;1694689;82;25944;-74
2021/05/04 01:58:33;;;;;;;11.60;7.25;;;;;;;5.07;74.39;100583.56;1740424;81;25772;-74
2021/05/04 02:01:01;;;;;;;14.93;7.62;;;;;;;5.08;74.28;100589.72;1698188;82;25830;-74
2021/05/04 02:03:28;;;;;;;12.55;7.62;;;;;;;5.08;74.13;100589.23;1698642;82;25841;-74
2021/05/04 02:05:55;;;;;;;10.72;7.03;;;;;;;5.07;73.98;100585.41;1712958;81;28298;-74
2021/05/04 02:08:23;;;;;;;13.93;7.78;;;;;;;5.07;73.89;100578.77;1717257;82;25811;-75
2021/05/04 02:10:50;;;;;;;17.95;8.45;;;;;;;4.98;73.79;100585.83;1654344;82;25833;-75
2021/05/04 02:13:18;;;;;;;16.10;7.85;;;;;;;4.95;73.75;100584.78;1678423;82;26103;-75
2021/05/04 02:15:45;;;;;;;13.60;8.08;;;;;;;4.91;73.82;100583.42;1693695;82;25703;-74
2021/05/04 02:18:12;;;;;;;14.10;8.35;;;;;;;4.89;73.88;100570.80;1658563;82;26857;-74
2021/05/04 02:20:40;;;;;;;14.00;8.03;;;;;;;4.88;73.89;100576.23;1696175;82;26413;-74
2021/05/04 02:23:07;;;;;;;16.40;8.15;;;;;;;4.88;73.85;100574.42;1690356;83;25956;-74
2021/05/04 02:25:34;;;;;;;13.10;8.45;;;;;;;4.86;73.81;100576.88;1717404;82;26117;-75
2021/05/04 02:28:03;;;;;;;14.90;7.30;;;;;;;4.85;73.82;100572.57;1694783;81;26548;-75
2021/05/04 02:30:33;;;;;;;11.90;7.95;;;;;;;4.82;73.78;100571.05;1666872;83;27547;-74
2021/05/04 02:33:02;;;;;;;15.73;7.70;;;;;;;4.81;73.77;100564.58;1719628;82;26428;-74
2021/05/04 02:35:29;;;;;;;11.63;7.05;;;;;;;4.74;73.63;100563.02;1738090;81;26431;-74
2021/05/04 02:37:56;;;;;;;16.60;8.35;;;;;;;4.70;73.75;100565.11;1679691;82;26291;-74
2021/05/04 02:40:23;;;;;;;12.18;8.20;;;;;;;4.72;73.81;100561.48;1681838;83;26108;-74
2021/05/04 02:42:51;;;;;;;14.73;7.95;;;;;;;4.70;73.62;100561.12;1690082;82;27366;-74
2021/05/04 02:45:18;;;;;;;13.83;8.13;;;;;;;4.64;73.57;100563.06;1725555;83;26453;-74
2021/05/04 02:47:46;;;;;;;13.55;8.25;;;;;;;4.58;73.49;100557.03;1666432;82;25928;-74
2021/05/04 02:50:14;;;;;;;12.37;7.62;;;;;;;4.51;73.52;100566.56;1730576;80;26548;-74
2021/05/04 02:52:42;;;;;;;13.05;7.33;;;;;;;4.48;73.54;100560.25;1740513;81;26120;-74
2021/05/04 02:55:10;;;;;;;13.70;8.25;;;;;;;4.42;73.56;100563.50;1693744;83;27600;-74
2021/05/04 02:57:37;;;;;;;12.33;7.42;;;;;;;4.44;73.71;100562.02;1668630;84;25405;-74
2021/05/04 03:00:08;;;;;;;17.92;8.25;;;;;;;4.40;73.68;100563.30;1673020;82;25792;-74
2021/05/04 03:02:35;;;;;;;14.40;7.53;;;;;;;4.41;73.81;100568.44;1688033;83;25748;-74
2021/05/04 03:05:03;;;;;;;14.50;8.75;;;;;;;4.41;73.93;100563.63;1719418;82;26074;-75
2021/05/04 03:07:31;;;;;;;17.50;9.75;;;;;;;4.42;74.00;100566.15;1686411;81;28473;-74
2021/05/04 03:09:58;;;;;;;15.08;8.75;;;;;;;4.38;73.98;100567.91;1738726;81;25784;-74
2021/05/04 03:12:25;;;;;;;14.45;8.58;;;;;;;4.34;74.04;100563.38;1731343;80;25826;-74
2021/05/04 03:14:52;;;;;;;14.68;8.08;;;;;;;4.33;74.09;100557.75;1759085;81;25698;-74
2021/05/04 03:17:20;;;;;;;11.70;7.40;;;;;;;4.27;74.20;100560.15;1732564;80;25755;-74
2021/05/04 03:19:47;;;;;;;14.45;9.23;;;;;;;4.25;74.25;100560.79;1747669;80;28006;-73
2021/05/04 03:22:14;;;;;;;13.70;8.98;;;;;;;4.24;74.44;100553.80;1758427;80;26389;-74
2021/05/04 03:24:42;;;;;;;14.63;8.08;;;;;;;4.23;74.42;100554.80;1775997;80;26062;-74
2021/05/04 03:27:10;;;;;;;13.08;8.58;;;;;;;4.24;74.51;100550.67;1715514;80;25819;-74
2021/05/04 03:29:37;;;;;;;15.83;8.70;;;;;;;4.24;74.61;100553.32;1728917;80;25818;-74
2021/05/04 03:32:05;;;;;;;14.03;8.50;;;;;;;4.25;74.59;100544.88;1784362;79;27287;-74
2021/05/04 03:34:32;;;;;;;14.95;7.97;;;;;;;4.27;74.60;100546.89;1776041;80;26614;-74
2021/05/04 03:37:00;;;;;;;15.45;8.90;;;;;;;4.27;74.62;100545.56;1718162;80;25991;-75
2021/05/04 03:39:28;;;;;;;16.95;8.58;;;;;;;4.32;74.66;100552.60;1746656;80;26510;-74
2021/05/04 03:41:55;;;;;;;15.00;8.33;;;;;;;4.32;74.66;100544.12;1787733;78;25837;-74
2021/05/04 03:44:22;;;;;;;14.55;8.70;;;;;;;4.36;74.75;100550.00;1776537;79;27506;-74
2021/05/04 03:46:50;;;;;;;14.20;9.28;;;;;;;4.44;74.86;100544.29;1754018;79;25918;-74
2021/05/04 03:49:17;;;;;;;15.93;9.45;;;;;;;4.52;74.81;100539.55;1762232;79;25407;-74
2021/05/04 03:51:44;;;;;;;17.73;9.35;;;;;;;4.57;74.76;100538.14;1760352;79;26329;-74
2021/05/04 03:54:12;;;;;;;13.98;8.50;;;;;;;4.62;74.69;100538.98;1772383;79;25770;-74
2021/05/04 03:56:39;;;;;;;14.38;8.08;;;;;;;4.60;74.56;100541.80;1661574;82;28467;-74
2021/05/04 03:59:06;;;;;;;16.32;9.18;;;;;;;4.62;74.65;100540.31;1712318;81;25350;-74
2021/05/04 04:01:35;;;;;;;14.05;8.50;;;;;;;4.63;74.53;100543.33;1697722;81;25981;-74
2021/05/04 04:04:03;;;;;;;15.28;8.88;;;;;;;4.64;74.71;100531.74;1741011;81;25838;-74
2021/05/04 04:06:31;;;;;;;13.78;8.73;;;;;;;4.65;74.66;100537.38;1681792;82;26116;-74
2021/05/04 04:08:58;;;;;;;12.73;8.70;;;;;;;4.66;74.65;100533.23;1677559;82;27614;-74
2021/05/04 04:11:25;;;;;;;14.68;8.93;;;;;;;4.68;74.73;100532.59;1742386;81;25794;-74
2021/05/04 04:13:53;;;;;;;17.02;9.40;;;;;;;4.72;74.63;100531.81;1735161;81;25663;-74
2021/05/04 04:16:20;;;;;;;16.42;9.48;;;;;;;4.72;74.72;100530.97;1653430;82;25849;-74
2021/05/04 04:18:47;;;;;;;17.82;9.15;;;;;;;4.75;74.90;100534.15;1725220;81;25370;-74
2021/05/04 04:21:15;;;;;;;16.62;9.20;;;;;;;4.82;75.00;100530.41;1716425;81;27339;-75
2021/05/04 04:23:42;;;;;;;17.55;8.63;;;;;;;4.84;75.10;100526.62;1710886;82;25944;-74
2021/05/04 04:26:09;;;;;;;13.68;8.70;;;;;;;4.87;75.11;100526.33;1672513;82;25946;-73
2021/05/04 04:28:36;;;;;;;17.92;8.38;;;;;;;4.91;75.21;100522.38;1667639;82;25830;-74
2021/05/04 04:31:04;;;;;;;13.75;8.00;;;;;;;4.96;75.37;100522.73;1725469;81;25853;-74
2021/05/04 04:33:31;;;;;;;16.75;8.35;;;;;;;5.01;75.37;100521.80;1720643;82;27525;-74
2021/05/04 04:35:58;;;;;;;14.70;8.85;;;;;;;5.06;75.47;100508.91;1676416;83;26445;-74
2021/05/04 04:38:26;;;;;;;15.48;8.83;;;;;;;5.14;75.56;100513.43;1721522;82;26468;-74
2021/05/04 04:40:53;;;;;;;14.65;8.55;;;;;;;5.20;75.48;100504.36;1711348;82;26429;-75
2021/05/04 04:43:20;;;;;;;14.65;8.63;;;;;;;5.25;75.46;100501.24;1725625;82;25753;-74
2021/05/04 04:45:48;;;;;;;18.40;9.13;;;;;;;5.34;75.57;100504.30;1740934;80;28388;-74
2021/05/04 04:48:15;;;;;;;14.85;9.20;;;;;;;5.44;75.60;100498.38;1736384;80;25816;-74
2021/05/04 04:50:42;;;;;;;16.10;10.05;;;;;;;5.56;75.68;100497.64;1782904;79;26348;-75
2021/05/04 04:53:10;;;;;;;12.23;8.33;;;;;;;5.68;75.66;100499.03;1775913;80;25801;-74
2021/05/04 04:55:37;;;;;;;14.73;9.10;;;;;;;5.77;75.42;100504.24;1747244;80;26190;-76
2021/05/04 04:58:04;;;;;;;13.03;8.78;;;;;;;5.85;75.41;100497.66;1730673;80;27522;-77
2021/05/04 05:00:32;;;;;;;16.17;9.65;;;;;;;5.95;75.21;100500.19;1756702;80;26470;-77
2021/05/04 05:02:59;;;;;;;14.07;9.15;;;;;;;6.04;75.28;100500.07;1765964;80;25772;-76
2021/05/04 05:05:27;;;;;;;15.43;9.00;;;;;;;6.14;75.19;100496.78;1758221;80;25836;-76
2021/05/04 05:07:54;;;;;;;16.90;9.23;;;;;;;6.25;75.01;100498.31;1758312;80;26008;-76
2021/05/04 05:10:22;;;;;;;12.47;9.83;;;;;;;6.33;74.89;100496.19;1758972;80;27495;-77
2021/05/04 05:12:49;;;;;;;15.15;9.58;;;;;;;6.44;74.94;100490.54;1776272;80;26072;-76
2021/05/04 05:15:17;;;;;;;14.07;9.43;;;;;;;6.56;74.78;100499.90;1707007;80;25852;-76
2021/05/04 05:17:44;;;;;;;16.07;9.60;;;;;;;6.63;74.92;100497.73;1756955;80;25780;-76
2021/05/04 05:20:13;;;;;;;11.75;8.08;;;;;;;6.74;74.86;100488.11;1767214;80;26056;-76
2021/05/04 05:22:45;;;;;;;15.78;10.00;;;;;;;6.84;74.56;100498.62;1777912;80;27531;-76
2021/05/04 05:25:13;;;;;;;12.43;8.58;;;;;;;6.92;74.43;100497.28;1733072;80;26146;-76
2021/05/04 05:27:40;;;;;;;13.62;9.35;;;;;;;7.02;74.44;100492.62;1730321;80;25801;-76
2021/05/04 05:30:09;;;;;;;16.27;9.65;;;;;;;7.10;74.00;100496.60;1754730;80;26448;-75
2021/05/04 05:32:36;;;;;;;13.68;9.10;;;;;;;7.19;74.15;100494.77;1769860;80;25763;-76
2021/05/04 05:35:05;;;;;;;15.98;9.10;;;;;;;7.28;73.83;100496.44;1731069;80;27531;-76
2021/05/04 05:37:32;;;;;;;12.95;8.80;;;;;;;7.36;73.48;100491.93;1755074;80;25882;-76
2021/05/04 05:39:59;;;;;;;13.43;8.55;;;;;;;7.47;73.30;100481.42;1754257;80;25781;-75
2021/05/04 05:42:27;;;;;;;15.32;8.13;;;;;;;7.57;73.19;100476.23;1777379;79;26189;-76
2021/05/04 05:44:54;;;;;;;12.33;8.48;;;;;;;7.66;72.87;100475.21;1709108;79;25875;-76
2021/05/04 05:47:21;;;;;;;13.40;8.23;;;;;;;7.76;72.72;100478.50;1763461;80;28259;-75
2021/05/04 05:49:48;;;;;;;12.82;8.20;;;;;;;7.86;72.52;100482.32;1777244;79;25842;-75
2021/05/04 05:52:16;;;;;;;11.97;7.28;;;;;;;7.92;72.12;100476.78;1734459;79;25835;-76
2021/05/04 05:54:43;;;;;;;16.25;9.03;;;;;;;8.02;72.28;100474.77;1722741;80;25815;-76
2021/05/04 05:57:10;;;;;;;14.90;7.95;;;;;;;8.12;71.54;100471.37;1710632;82;25724;-76
2021/05/04 05:59:38;;;;;;;7.83;6.67;;;;;;;8.16;71.42;100467.36;1696243;83;27641;-76
2021/05/04 06:02:05;;;;;;;13.78;7.70;;;;;;;8.26;71.61;100462.66;1658893;82;25851;-76
2021/05/04 06:04:32;;;;;;;12.35;7.25;;;;;;;8.36;71.34;100461.42;1702634;81;25808;-76
2021/05/04 06:07:00;;;;;;;12.28;6.90;;;;;;;8.51;70.63;100461.53;1715818;81;25742;-76
2021/05/04 06:09:27;;;;;;;11.68;6.62;;;;;;;8.58;70.34;100461.13;1715206;83;26474;-77
2021/05/04 06:11:54;;;;;;;9.78;6.53;;;;;;;8.65;69.45;100462.59;1674717;81;27710;-76
2021/05/04 06:14:22;;;;;;;9.78;6.37;;;;;;;8.70;69.83;100463.73;1668109;83;25706;-76
2021/05/04 06:16:49;;;;;;;10.50;6.42;;;;;;;8.82;69.79;100462.80;1696004;82;25859;-76
2021/05/04 06:19:18;;;;;;;10.58;7.25;;;;;;;8.93;69.74;100450.36;1721162;82;26361;-76
2021/05/04 06:21:45;;;;;;;9.43;6.92;;;;;;;9.03;69.16;100446.42;1672356;81;25793;-76
2021/05/04 06:24:12;;;;;;;10.40;6.30;;;;;;;9.13;69.16;100440.31;1675039;82;27655;-76
2021/05/04 06:26:40;;;;;;;11.30;7.12;;;;;;;9.22;68.92;100436.56;1716256;81;25937;-76
2021/05/04 06:29:08;;;;;;;11.18;6.67;;;;;;;9.32;68.87;100425.62;1715407;83;26450;-76
2021/05/04 06:31:35;;;;;;;9.40;6.00;;;;;;;9.39;68.38;100422.52;1696586;81;26442;-76
2021/05/04 06:34:05;;;;;;;9.93;6.78;;;;;;;9.45;67.38;100427.16;1698787;82;25741;-76
2021/05/04 06:36:32;;;;;;;9.28;5.97;;;;;;;9.51;68.41;100420.23;1692159;82;28294;-76
2021/05/04 06:39:00;;;;;;;10.70;6.47;;;;;;;9.64;68.15;100419.08;1693829;83;26050;-76
2021/05/04 06:41:28;;;;;;;11.12;6.67;;;;;;;9.73;67.92;100414.77;1650654;83;25910;-77
2021/05/04 06:43:55;;;;;;;10.65;7.03;;;;;;;9.85;67.95;100413.80;1678613;83;26192;-76
2021/05/04 06:46:23;;;;;;;9.75;6.45;;;;;;;9.94;67.16;100401.98;1753714;80;25788;-76
2021/05/04 06:48:50;;;;;;;8.45;5.85;;;;;;;10.04;67.42;100402.02;1767154;80;28078;-76
2021/05/04 06:51:17;;;;;;;8.53;5.58;;;;;;;10.16;67.25;100401.56;1711130;80;25997;-76
2021/05/04 06:53:45;;;;;;;8.13;5.17;;;;;;;10.26;67.42;100392.20;1725000;80;25738;-75
2021/05/04 06:56:12;;;;;;;6.90;5.28;;;;;;;10.36;67.04;100397.23;1753431;80;26140;-76
2021/05/04 06:58:39;;;;;;;8.65;5.90;;;;;;;10.44;66.42;100389.91;1768229;79;26293;-76
2021/05/04 07:01:06;;;;;;;10.48;6.35;;;;;;;10.52;66.46;100383.61;1711320;80;28323;-76
2021/05/04 07:03:34;;;;;;;9.60;6.22;;;;;;;10.61;66.51;100379.76;1733641;80;25827;-76
2021/05/04 07:06:01;;;;;;;10.63;5.60;;;;;;;10.70;65.89;100382.63;1734287;80;26481;-76
2021/05/04 07:08:28;;;;;;;8.48;5.47;;;;;;;10.75;65.76;100375.69;1768171;80;26393;-76
2021/05/04 07:10:57;;;;;;;9.25;5.10;;;;;;;10.83;65.79;100363.99;1738520;80;26379;-76
2021/05/04 07:13:24;;;;;;;7.95;4.97;;;;;;;10.89;64.61;100365.89;1729108;80;27537;-76
2021/05/04 07:15:51;;;;;;;8.83;5.05;;;;;;;10.97;65.53;100360.91;1775155;79;25831;-77
2021/05/04 07:18:20;;;;;;;9.43;5.58;;;;;;;11.07;65.57;100354.69;1756040;80;25885;-76
2021/05/04 07:20:47;;;;;;;7.72;5.12;;;;;;;11.13;64.41;100351.22;1699039;80;25818;-75
2021/05/04 07:23:15;;;;;;;7.67;4.85;;;;;;;11.19;64.16;100350.43;1727347;80;25736;-76
2021/05/04 07:25:42;;;;;;;7.58;4.72;;;;;;;11.23;64.22;100349.84;1752852;80;28803;-76
2021/05/04 07:28:10;;;;;;;7.17;4.83;;;;;;;11.29;63.95;100341.01;1768415;80;25337;-76
2021/05/04 07:30:41;;;;;;;6.85;4.60;;;;;;;11.37;63.07;100334.17;1709644;80;25791;-76
2021/05/04 07:33:07;;;;;;;6.80;4.53;;;;;;;11.44;62.56;100325.63;1763184;80;25843;-76
2021/05/04 07:35:35;;;;;;;6.50;4.75;;;;;;;11.51;61.47;100324.31;1757736;80;25748;-76
2021/05/04 07:38:02;;;;;;;8.28;4.45;;;;;;;11.61;62.58;100324.25;1767628;80;28433;-76
2021/05/04 07:40:31;;;;;;;8.13;4.40;;;;;;;11.75;60.87;100318.47;1729987;80;25810;-77
2021/05/04 07:42:58;;;;;;;6.58;4.20;;;;;;;11.84;60.87;100319.95;1761181;79;26425;-76
2021/05/04 07:45:26;;;;;;;8.60;3.90;;;;;;;11.94;60.25;100319.55;1793359;79;25846;-75
2021/05/04 07:47:56;;;;;;;7.67;4.78;;;;;;;12.02;60.07;100316.17;1778334;79;25465;-76
2021/05/04 07:50:24;;;;;;;5.40;3.77;;;;;;;12.13;60.21;100309.38;1711069;79;27045;-76
2021/05/04 07:52:51;;;;;;;6.33;4.72;;;;;;;12.27;59.56;100307.05;1778772;79;25881;-77
2021/05/04 07:55:19;;;;;;;4.72;3.35;;;;;;;12.37;59.13;100300.23;1730949;79;26357;-76
2021/05/04 07:57:47;;;;;;;5.28;3.80;;;;;;;12.49;59.08;100299.09;1781630;79;26432;-77
2021/05/04 08:00:15;;;;;;;6.75;3.47;;;;;;;12.59;58.55;100290.63;1735280;79;26077;-77
2021/05/04 08:02:42;;;;;;;8.60;4.28;;;;;;;12.66;58.39;100292.80;1729644;79;28538;-78
2021/05/04 08:05:11;;;;;;;9.10;4.20;;;;;;;12.67;57.16;100283.19;1753178;79;25723;-77
2021/05/04 08:07:38;;;;;;;5.78;3.70;;;;;;;12.66;57.08;100285.55;1771304;79;25795;-77
2021/05/04 08:10:08;;;;;;;5.85;3.58;;;;;;;12.66;56.85;100280.72;1732318;79;25877;-77
2021/05/04 08:12:36;;;;;;;8.05;4.40;;;;;;;12.68;56.75;100277.30;1721312;79;25785;-77
2021/05/04 08:15:07;;;;;;;4.87;3.70;;;;;;;12.73;56.05;100264.05;1733724;79;27330;-74
2021/05/04 08:17:36;;;;;;;;;;;;;;;12.79;55.81;100269.92;1783346;79;25797;-73
2021/05/04 08:20:04;;;;;;;5.37;3.60;;;;;;;12.87;54.90;100267.04;1710076;79;26575;-75
2021/05/04 08:22:32;;;;;;;5.72;3.45;;;;;;;12.94;56.03;100265.98;1775382;79;26378;-74
2021/05/04 08:25:00;;;;;;;6.28;3.80;;;;;;;13.04;54.14;100260.18;1754132;79;25943;-75
2021/05/04 08:27:27;;;;;;;7.78;4.50;;;;;;;13.05;53.45;100251.92;1733447;81;27541;-75
2021/05/04 08:29:55;;;;;;;8.13;4.35;;;;;;;13.07;53.57;100253.05;1758223;79;26608;-75
2021/05/04 08:32:22;;;;;;;5.53;3.58;;;;;;;13.11;51.98;100260.48;1757108;79;25754;-75
2021/05/04 08:34:49;;;;;;;8.18;3.92;;;;;;;13.10;53.04;100264.23;1754038;79;25802;-75
2021/05/04 08:37:17;;;;;;;6.67;3.67;;;;;;;13.14;53.06;100256.55;1756110;79;26560;-75
2021/05/04 08:39:44;;;;;;;6.37;3.95;;;;;;;13.18;52.40;100244.33;1727152;79;27527;-75
2021/05/04 08:42:11;;;;;;;5.25;3.15;;;;;;;13.21;51.93;100251.99;1754597;80;26398;-75
2021/05/04 08:44:42;;;;;;;5.30;3.72;;;;;;;13.23;49.86;100245.05;1775478;79;25777;-75
2021/05/04 08:47:10;;;;;;;5.80;3.50;;;;;;;13.23;51.54;100243.19;1753934;80;26450;-75
2021/05/04 08:49:38;;;;;;;4.97;3.30;;;;;;;13.26;49.26;100239.25;1756720;80;25747;-74
2021/05/04 08:52:06;;;;;;;6.25;3.95;;;;;;;13.28;51.36;100228.56;1751472;80;27514;-74
2021/05/04 08:54:33;;;;;;;5.12;3.70;;;;;;;13.33;51.70;100227.41;1752100;80;25793;-74
2021/05/04 08:57:00;;;;;;;8.13;4.60;;;;;;;13.45;52.52;100215.48;1720365;81;25828;-75
2021/05/04 08:59:28;;;;;;;6.92;4.30;;;;;;;13.57;52.11;100219.13;1702347;83;25860;-74
2021/05/04 09:01:55;;;;;;;7.75;4.12;;;;;;;13.64;52.86;100212.66;1724478;82;26123;-75
2021/05/04 09:07:17;;;;;;;10.33;5.83;;;;;;;13.88;52.75;100202.98;1845407;75;38572;-75
2021/05/04 09:10:15;;;;;;;10.40;5.10;;;;;;;14.08;52.28;100203.67;1719816;81;25747;-75
2021/05/04 09:15:56;;;;;;;7.30;4.80;;;;;;;14.15;51.82;100190.16;1703926;83;25751;-74
2021/05/04 09:21:14;;;;;;;7.85;4.62;;;;;;;14.26;50.87;100188.94;1700476;82;25960;-74
2021/05/04 09:23:43;;;;;;;8.83;4.40;;;;;;;14.27;50.62;100177.61;1719179;82;25890;-74
2021/05/04 09:26:23;;;;;;;7.22;4.10;;;;;;;14.26;50.24;100169.25;1728394;82;27534;-74
2021/05/04 09:28:53;;;;;;;8.00;4.47;;;;;;;14.25;49.24;100162.19;1723697;80;26273;-75
2021/05/04 09:31:29;;;;;;;6.25;3.90;;;;;;;14.25;49.50;100167.06;1739760;80;26437;-74
2021/05/04 09:34:09;;;;;;;7.17;4.35;;;;;;;14.31;49.91;100163.52;1677622;83;26111;-74
2021/05/04 09:36:45;;;;;;;6.30;4.08;;;;;;;14.37;50.44;100151.84;1716843;81;25838;-74
2021/05/04 09:39:28;;;;;;;6.40;4.10;;;;;;;14.46;50.27;100153.22;1676115;81;28442;-74
2021/05/04 09:42:01;;;;;;;5.45;4.08;;;;;;;14.56;50.14;100145.43;1674451;83;25877;-74
2021/05/04 09:44:47;;;;;;;8.93;5.08;;;;;;;14.65;50.16;100139.22;1705065;82;25881;-74
2021/05/04 09:47:26;;;;;;;7.20;4.17;;;;;;;14.78;50.80;100133.69;1719239;82;25850;-75
2021/05/04 09:49:57;;;;;;;5.97;3.70;;;;;;;14.88;50.35;100120.52;1653862;82;26440;-74
2021/05/04 09:52:41;;;;;;;5.72;3.75;;;;;;;14.94;49.99;100124.17;1682312;82;28472;-75
2021/05/04 09:55:10;;;;;;;4.95;3.40;;;;;;;14.89;48.10;100127.55;1737751;81;26551;-74
2021/05/04 09:57:49;;;;;;;3.98;3.17;;;;;;;14.82;47.23;100118.70;1722092;82;25753;-75
2021/05/04 10:00:23;;;;;;;5.75;3.58;;;;;;;14.78;48.15;100110.77;1682412;82;26694;-74
2021/05/04 10:02:52;;;;;;;6.47;4.55;;;;;;;14.76;47.52;100103.95;1678233;82;26365;-75
2021/05/04 10:05:20;;;;;;;5.83;3.95;;;;;;;14.71;46.60;100097.91;1749535;80;27316;-74
2021/05/04 10:07:48;;;;;;;5.62;3.30;;;;;;;14.72;46.40;100100.89;1698467;83;25793;-75
2021/05/04 10:10:17;;;;;;;5.42;3.05;;;;;;;14.76;47.57;100094.52;1679602;83;26294;-76
2021/05/04 10:12:46;;;;;;;4.65;3.60;;;;;;;14.80;47.11;100093.84;1659057;83;25874;-76
2021/05/04 10:15:15;;;;;;;4.47;3.17;;;;;;;14.86;48.12;100084.03;1694797;83;25911;-77
2021/05/04 10:17:43;;;;;;;6.03;4.00;;;;;;;14.90;47.95;100085.23;1721311;82;28437;-78
2021/05/04 10:20:20;;;;;;;6.30;3.80;;;;;;;14.92;47.75;100074.52;1632338;83;25813;-75
2021/05/04 10:22:48;;;;;;;6.15;3.72;;;;;;;14.93;47.74;100068.05;1660388;83;26143;-73
2021/05/04 10:25:19;;;;;;;6.65;4.20;;;;;;;14.94;48.24;100061.63;1682802;83;25719;-73
2021/05/04 10:27:53;;;;;;;9.13;4.20;;;;;;;14.93;48.81;100064.53;1704821;83;25874;-73
2021/05/04 10:30:23;;;;;;;8.88;3.83;;;;;;;14.88;48.75;100053.63;1682502;83;27623;-73
2021/05/04 10:32:54;;;;;;;6.50;4.22;;;;;;;14.79;48.43;100051.77;1661242;83;25668;-73
2021/05/04 10:35:38;;;;;;;4.75;4.00;;;;;;;14.76;48.42;100048.67;1692767;82;26206;-73
2021/05/04 10:38:09;;;;;;;5.55;4.05;;;;;;;14.73;48.24;100032.97;1726312;82;26191;-73
2021/05/04 10:40:46;;;;;;;4.87;3.95;;;;;;;14.71;48.34;100029.17;1661919;83;26584;-73
2021/05/04 10:43:25;;;;;;;7.95;4.22;;;;;;;14.73;48.93;100029.77;1684286;83;27609;-73
2021/05/04 10:45:57;;;;;;;7.42;4.12;;;;;;;14.78;48.77;100029.08;1680815;83;25910;-73
2021/05/04 10:48:42;;;;;;;5.47;3.45;;;;;;;14.82;48.39;100022.18;1701909;83;26372;-73
2021/05/04 10:51:14;;;;;;;5.97;3.87;;;;;;;14.85;48.64;100013.09;1682127;83;26502;-73
2021/05/04 10:53:56;;;;;;;5.17;4.37;;;;;;;14.89;48.31;100011.59;1683809;83;25777;-74
2021/05/04 10:56:43;;;;;;;6.00;4.33;;;;;;;14.96;49.21;100010.15;1674401;83;27555;-75
2021/05/04 10:59:14;;;;;;;8.85;4.95;;;;;;;14.96;47.45;100006.93;1737142;81;26106;-74
2021/05/04 11:02:10;;;;;;;6.83;5.03;;;;;;;15.01;48.76;100012.44;1728090;82;25843;-74
2021/05/04 11:04:44;;;;;;;8.18;5.17;;;;;;;15.05;48.83;100004.73;1678566;83;26100;-73
2021/05/04 11:07:12;;;;;;;7.35;4.92;;;;;;;15.09;48.99;100004.56;1695990;82;26577;-73
2021/05/04 11:09:40;;;;;;;7.12;5.30;;;;;;;15.11;47.13;99990.31;1731004;82;27512;-74
2021/05/04 11:12:09;;;;;;;10.90;6.00;;;;;;;15.11;47.88;99991.14;1680418;82;26583;-73
2021/05/04 11:17:16;;;;;;;10.53;6.42;;;;;;;15.14;47.44;99973.13;1827645;77;26195;-74
2021/05/04 11:19:46;;;;;;;7.00;5.28;;;;;;;15.13;47.25;99960.72;1789037;78;26303;-74
2021/05/04 11:22:19;;;;;;;9.98;5.72;;;;;;;15.19;47.83;99952.20;1770347;78;28312;-74
2021/05/04 11:24:51;;;;;;;9.65;4.87;;;;;;;15.20;47.78;99940.37;1799240;78;25700;-73
2021/05/04 11:27:25;;;;;;;10.23;5.03;;;;;;;15.20;46.70;99941.73;1771211;80;25774;-74
2021/05/04 11:29:57;;;;;;;8.20;5.25;;;;;;;15.23;48.39;99943.94;1775652;78;25722;-74
2021/05/04 11:32:41;;;;;;;8.25;5.17;;;;;;;15.28;47.90;99941.38;1740383;78;25804;-74
2021/05/04 11:35:10;;;;;;;9.65;5.42;;;;;;;15.33;47.28;99922.63;1795459;78;27512;-78
2021/05/04 11:37:43;;;;;;;7.55;4.80;;;;;;;15.33;46.58;99922.07;1750905;78;26038;-77
2021/05/04 11:40:23;;;;;;;8.48;4.80;;;;;;;15.31;47.39;99913.39;1772854;78;25864;-79
2021/05/04 11:42:56;;;;;;;6.80;4.17;;;;;;;15.30;47.86;99910.41;1763352;78;26219;-74
2021/05/04 11:45:30;;;;;;;5.60;4.50;;;;;;;15.29;47.71;99906.05;1795588;78;26051;-74